createdAt,value
2023-01-28T00:01:24.595Z,102766.59
2023-01-28T00:03:53.749Z,102763.25
2023-01-28T00:06:22.915Z,102758.09
2023-01-28T00:08:54.774Z,102755.44
2023-01-28T00:11:24.158Z,102756.25
2023-01-28T00:13:53.570Z,102757.06
2023-01-28T00:16:23.565Z,102757.84
2023-01-28T00:18:52.641Z,102765.72
2023-01-28T00:21:21.700Z,102764.88
2023-01-28T00:23:55.433Z,102765.88
2023-01-28T00:26:26.158Z,102763.34
2023-01-28T00:28:55.263Z,102764.22
2023-01-28T00:31:27.234Z,102764.97
2023-01-28T00:33:58.067Z,102766.69
2023-01-28T00:36:28.128Z,102768.31
2023-01-28T00:39:00.070Z,102762.16
2023-01-28T00:41:30.815Z,102761.25
2023-01-28T00:44:00.754Z,102764.75
2023-01-28T00:46:31.600Z,102756.09
2023-01-28T00:49:01.493Z,102762.22
2023-01-28T00:51:30.580Z,102765.66
2023-01-28T00:54:00.979Z,102758.78
2023-01-28T00:56:30.101Z,102753.63
2023-01-28T00:58:59.162Z,102749.34
2023-01-28T01:01:29.372Z,102754.69
2023-01-28T01:04:02.556Z,102755.78
2023-01-28T01:06:35.229Z,102759.16
2023-01-28T01:09:08.680Z,102767.63
2023-01-28T01:11:37.739Z,102760.72
2023-01-28T01:14:06.933Z,102769.34
2023-01-28T01:16:36.474Z,102774.66
2023-01-28T01:19:06.065Z,102771.28
2023-01-28T01:21:35.144Z,102766.94
2023-01-28T01:24:05.787Z,102766.97
2023-01-28T01:26:34.832Z,102753.94
2023-01-28T01:29:03.903Z,102753.09
2023-01-28T01:31:32.949Z,102756.59
2023-01-28T01:34:02.774Z,102754.84
2023-01-28T01:36:32.137Z,102749.69
2023-01-28T01:39:01.151Z,102755.91
2023-01-28T01:41:33.883Z,102754.06
2023-01-28T01:44:04.798Z,102750.59
2023-01-28T01:46:39.775Z,102750.56
2023-01-28T01:49:17.037Z,102753.19
2023-01-28T01:51:49.353Z,102755.72
2023-01-28T01:54:19.565Z,102750.50
2023-01-28T01:56:52.032Z,102752.16
2023-01-28T01:59:26.735Z,102755.66
2023-01-28T02:01:56.181Z,102756.88
2023-01-28T02:04:29.906Z,102756.84
2023-01-28T02:07:01.203Z,102762.91
2023-01-28T02:09:32.371Z,102750.75
2023-01-28T02:12:08.159Z,102751.53
2023-01-28T02:14:41.643Z,102753.22
2023-01-28T02:17:11.260Z,102751.66
2023-01-28T02:19:45.278Z,102753.69
2023-01-28T02:22:44.285Z,102748.47
2023-01-28T02:25:59.013Z,102751.78
2023-01-28T02:28:35.162Z,102745.69
2023-01-28T02:31:12.498Z,102743.13
2023-01-28T02:33:48.526Z,102745.78
2023-01-28T02:36:25.625Z,102746.63
2023-01-28T02:38:56.957Z,102741.50
2023-01-28T02:41:31.129Z,102738.81
2023-01-28T02:44:04.800Z,102748.28
2023-01-28T02:46:55.732Z,102750.81
2023-01-28T02:49:30.433Z,102741.34
2023-01-28T02:52:43.090Z,102741.25
2023-01-28T02:55:18.874Z,102738.56
2023-01-28T02:57:59.285Z,102741.13
2023-01-28T03:00:38.436Z,102747.97
2023-01-28T03:03:15.337Z,102741.13
2023-01-28T03:06:06.732Z,102739.38
2023-01-28T03:08:58.410Z,102742.84
2023-01-28T03:11:47.581Z,102733.44
2023-01-28T03:14:35.966Z,102733.44
2023-01-28T03:17:28.395Z,102731.72
2023-01-28T03:20:15.490Z,102730.06
2023-01-28T03:23:07.479Z,102724.03
2023-01-28T03:25:59.060Z,102728.28
2023-01-28T03:28:49.883Z,102726.59
2023-01-28T03:31:39.304Z,102732.63
2023-01-28T03:34:28.799Z,102736.94
2023-01-28T03:36:59.591Z,102747.31
2023-01-28T03:39:34.729Z,102739.63
2023-01-28T03:42:08.585Z,102751.72
2023-01-28T03:44:54.683Z,102746.59
2023-01-28T03:47:26.086Z,102742.22
2023-01-28T03:49:59.597Z,102743.94
2023-01-28T03:52:32.011Z,102743.97
2023-01-28T03:55:25.771Z,102744.84
2023-01-28T03:57:54.878Z,102746.59
2023-01-28T04:00:24.108Z,102737.09
2023-01-28T04:02:53.190Z,102745.75
2023-01-28T04:05:25.419Z,102744.13
2023-01-28T04:07:56.800Z,102743.25
2023-01-28T04:10:58.332Z,102745.91
2023-01-28T04:13:31.336Z,102742.50
2023-01-28T04:16:03.859Z,102739.91
2023-01-28T04:18:37.558Z,102739.97
2023-01-28T04:21:08.321Z,102731.41
2023-01-28T04:23:37.615Z,102741.78
2023-01-28T04:26:07.467Z,102742.69
2023-01-28T04:28:36.852Z,102742.75
2023-01-28T04:31:06.097Z,102740.28
2023-01-28T04:33:58.046Z,102742.91
2023-01-28T04:36:54.594Z,102744.66
2023-01-28T04:39:29.099Z,102743.88
2023-01-28T04:42:12.043Z,102742.16
2023-01-28T04:45:16.978Z,102748.97
2023-01-28T04:48:12.215Z,102741.28
2023-01-28T04:50:56.598Z,102734.53
2023-01-28T04:53:38.174Z,102748.28
2023-01-28T04:56:25.746Z,102751.75
2023-01-28T04:58:55.011Z,102754.38
2023-01-28T05:01:25.611Z,102749.28
2023-01-28T05:03:55.448Z,102745.84
2023-01-28T05:06:27.833Z,102748.44
2023-01-28T05:09:00.828Z,102740.69
2023-01-28T05:11:30.239Z,102731.28
2023-01-28T05:14:03.539Z,102728.78
2023-01-28T05:16:40.195Z,102725.38
2023-01-28T05:19:09.676Z,102733.16
2023-01-28T05:21:42.469Z,102719.56
2023-01-28T05:24:22.487Z,102714.47
2023-01-28T05:26:51.782Z,102710.25
2023-01-28T05:29:20.846Z,102707.75
2023-01-28T05:31:50.495Z,102711.13
2023-01-28T05:34:19.905Z,102715.44
2023-01-28T05:36:48.939Z,102710.31
2023-01-28T05:39:31.336Z,102713.84
2023-01-28T05:42:00.592Z,102712.16
2023-01-28T05:44:30.160Z,102713.91
2023-01-28T05:47:14.450Z,102713.88
2023-01-28T05:49:54.207Z,102712.16
2023-01-28T05:52:49.307Z,102702.78
2023-01-28T05:55:26.646Z,102707.09
2023-01-28T05:57:56.256Z,102713.09
2023-01-28T06:00:28.657Z,102713.13
2023-01-28T06:02:57.967Z,102703.75
2023-01-28T06:05:27.403Z,102702.03
2023-01-28T06:07:56.678Z,102702.88
2023-01-28T06:10:27.083Z,102698.63
2023-01-28T06:12:57.254Z,102696.03
2023-01-28T06:15:29.092Z,102700.34
2023-01-28T06:18:16.477Z,102698.63
2023-01-28T06:20:45.662Z,102696.03
2023-01-28T06:23:14.802Z,102694.34
2023-01-28T06:25:45.254Z,102685.78
2023-01-28T06:28:16.710Z,102678.91
2023-01-28T06:30:48.878Z,102682.38
2023-01-28T06:33:17.896Z,102686.66
2023-01-28T06:35:47.603Z,102681.53
2023-01-28T06:38:16.633Z,102682.38
2023-01-28T06:40:51.930Z,102679.75
2023-01-28T06:43:21.059Z,102684.91
2023-01-28T06:45:50.119Z,102684.06
2023-01-28T06:48:19.128Z,102696.97
2023-01-28T06:50:48.788Z,102707.22
2023-01-28T06:53:18.857Z,102715.81
2023-01-28T06:55:49.546Z,102725.22
2023-01-28T06:58:18.590Z,102732.94
2023-01-28T07:00:47.598Z,102743.22
2023-01-28T07:03:16.866Z,102739.81
2023-01-28T07:05:46.035Z,102751.78
2023-01-28T07:08:15.195Z,102761.25
2023-01-28T07:10:44.303Z,102768.97
2023-01-28T07:13:14.728Z,102767.25
2023-01-28T07:15:43.872Z,102774.13
2023-01-28T07:18:12.953Z,102769.84
2023-01-28T07:20:41.975Z,102775.84
2023-01-28T07:23:11.036Z,102769.84
2023-01-28T07:25:40.139Z,102778.41
2023-01-28T07:28:09.517Z,102780.97
2023-01-28T07:30:39.994Z,102776.69
2023-01-28T07:33:09.139Z,102774.97
2023-01-28T07:35:38.129Z,102766.41
2023-01-28T07:38:07.283Z,102779.28
2023-01-28T07:40:36.628Z,102778.41
2023-01-28T07:43:07.171Z,102780.97
2023-01-28T07:45:41.610Z,102781.00
2023-01-28T07:48:14.314Z,102775.81
2023-01-28T07:50:43.442Z,102777.56
2023-01-28T07:53:13.764Z,102781.00
2023-01-28T07:55:46.025Z,102774.13
2023-01-28T07:58:15.106Z,102777.56
2023-01-28T08:00:45.542Z,102792.09
2023-01-28T08:03:15.880Z,102780.06
2023-01-28T08:05:48.046Z,102787.78
2023-01-28T08:08:17.463Z,102791.19
2023-01-28T08:10:46.802Z,102792.91
2023-01-28T08:13:17.373Z,102785.19
2023-01-28T08:15:48.457Z,102786.91
2023-01-28T08:18:18.337Z,102787.75
2023-01-28T08:20:47.681Z,102790.28
2023-01-28T08:23:19.293Z,102791.13
2023-01-28T08:25:49.104Z,102795.41
2023-01-28T08:28:19.131Z,102793.66
2023-01-28T08:30:50.044Z,102791.00
2023-01-28T08:33:20.810Z,102782.47
2023-01-28T08:35:49.861Z,102779.00
2023-01-28T08:38:20.433Z,102786.69
2023-01-28T08:40:50.855Z,102802.13
2023-01-28T08:43:19.898Z,102805.44
2023-01-28T08:45:50.333Z,102806.16
2023-01-28T08:48:20.495Z,102814.72
2023-01-28T08:50:50.772Z,102807.81
2023-01-28T08:53:21.177Z,102814.63
2023-01-28T08:55:50.252Z,102823.19
2023-01-28T08:58:20.403Z,102819.72
2023-01-28T09:00:51.513Z,102817.88
2023-01-28T09:03:20.646Z,102820.34
2023-01-28T09:05:50.320Z,102821.88
2023-01-28T09:08:19.418Z,102816.66
2023-01-28T09:10:48.434Z,102832.00
2023-01-28T09:13:17.907Z,102834.63
2023-01-28T09:15:47.024Z,102841.13
2023-01-28T09:18:17.617Z,102850.66
2023-01-28T09:20:46.876Z,102836.75
2023-01-28T09:23:16.611Z,102840.19
2023-01-28T09:25:45.699Z,102852.41
2023-01-28T09:28:14.734Z,102856.00
2023-01-28T09:30:43.829Z,102852.28
2023-01-28T09:33:12.952Z,102850.66
2023-01-28T09:35:43.420Z,102848.13
2023-01-28T09:38:12.435Z,102863.53
2023-01-28T09:40:44.392Z,102854.44
2023-01-28T09:43:54.565Z,102855.72
2023-01-28T09:46:29.293Z,102843.31
2023-01-28T09:49:03.507Z,102840.59
2023-01-28T09:51:40.544Z,102833.78
2023-01-28T09:54:21.596Z,102826.59
2023-01-28T09:56:59.424Z,102830.06
2023-01-28T09:59:29.427Z,102822.19
2023-01-28T10:02:07.736Z,102817.13
2023-01-28T10:04:50.886Z,102800.63
2023-01-28T10:07:35.253Z,102795.78
2023-01-28T10:10:11.547Z,102795.09
2023-01-28T10:12:59.509Z,102808.88
2023-01-28T10:15:49.885Z,102807.16
2023-01-28T10:18:26.247Z,102811.22
2023-01-28T10:21:03.376Z,102806.50
2023-01-28T10:23:42.617Z,102812.50
2023-01-28T10:26:21.546Z,102806.72
2023-01-28T10:28:59.286Z,102796.53
2023-01-28T10:31:34.912Z,102792.63
2023-01-28T10:34:04.447Z,102790.28
2023-01-28T10:36:35.193Z,102785.00
2023-01-28T10:39:09.000Z,102784.44
2023-01-28T10:41:45.371Z,102785.13
2023-01-28T10:44:22.722Z,102777.91
2023-01-28T10:46:54.460Z,102775.50
2023-01-28T10:49:27.459Z,102756.97
2023-01-28T10:51:56.525Z,102766.00
2023-01-28T10:54:29.173Z,102765.31
2023-01-28T10:57:03.034Z,102755.56
2023-01-28T10:59:34.545Z,102749.06
2023-01-28T11:02:06.294Z,102742.59
2023-01-28T11:04:37.111Z,102750.78
2023-01-28T11:07:15.608Z,102739.34
2023-01-28T11:09:50.191Z,102736.16
2023-01-28T11:12:23.200Z,102728.66
2023-01-28T11:14:53.604Z,102731.94
2023-01-28T11:17:25.683Z,102720.34
2023-01-28T11:19:56.059Z,102714.53
2023-01-28T11:22:33.465Z,102709.41
2023-01-28T11:25:07.106Z,102698.00
2023-01-28T11:27:36.360Z,102699.63
2023-01-28T11:30:07.823Z,102685.63
2023-01-28T11:32:36.929Z,102691.16
2023-01-28T11:35:07.758Z,102679.50
2023-01-28T11:37:37.863Z,102696.69
2023-01-28T11:40:22.140Z,102689.31
2023-01-28T11:42:52.972Z,102683.25
2023-01-28T11:45:28.122Z,102677.63
2023-01-28T11:48:20.144Z,102673.97
2023-01-28T11:50:54.633Z,102678.03
2023-01-28T11:53:40.407Z,102691.44
2023-01-28T11:56:27.385Z,102683.81
2023-01-28T11:59:10.699Z,102689.38
2023-01-28T12:01:48.669Z,102697.47
2023-01-28T12:04:37.545Z,102686.69
2023-01-28T12:07:18.930Z,102686.28
2023-01-28T12:09:57.744Z,102683.78
2023-01-28T12:12:50.860Z,102689.31
2023-01-28T12:15:52.211Z,102690.75
2023-01-28T12:18:38.022Z,102677.28
2023-01-28T12:21:10.914Z,102670.28
2023-01-28T12:23:58.362Z,102662.69
2023-01-28T12:26:38.203Z,102664.31
2023-01-28T12:29:20.166Z,102659.16
2023-01-28T12:32:14.273Z,102666.78
2023-01-28T12:35:04.630Z,102654.19
2023-01-28T12:37:49.101Z,102651.72
2023-01-28T12:40:35.190Z,102655.34
2023-01-28T12:43:07.964Z,102644.84
2023-01-28T12:45:42.116Z,102638.88
2023-01-28T12:48:17.093Z,102639.47
2023-01-28T12:50:51.498Z,102634.47
2023-01-28T12:53:27.408Z,102624.84
2023-01-28T12:56:01.574Z,102609.13
2023-01-28T12:58:41.500Z,102607.63
2023-01-28T13:01:17.585Z,102611.78
2023-01-28T13:03:54.369Z,102613.50
2023-01-28T13:06:29.409Z,102616.44
2023-01-28T13:09:02.174Z,102609.38
2023-01-28T13:11:36.122Z,102611.84
2023-01-28T13:14:06.759Z,102605.75
2023-01-28T13:16:38.075Z,102598.00
2023-01-28T13:19:10.334Z,102593.81
2023-01-28T13:21:48.562Z,102607.41
2023-01-28T13:24:31.700Z,102614.72
2023-01-28T13:27:12.379Z,102617.47
2023-01-28T13:29:41.436Z,102625.00
2023-01-28T13:32:37.866Z,102631.16
2023-01-28T13:35:10.389Z,102626.38
2023-01-28T13:37:45.120Z,102631.53
2023-01-28T13:40:27.392Z,102627.31
2023-01-28T13:43:03.018Z,102637.75
2023-01-28T13:45:32.407Z,102654.94
2023-01-28T13:48:20.263Z,102651.91
2023-01-28T13:50:53.284Z,102647.41
2023-01-28T13:53:31.151Z,102645.97
2023-01-28T13:56:01.016Z,102651.16
2023-01-28T13:59:09.761Z,102643.38
2023-01-28T14:02:11.247Z,102653.56
2023-01-28T14:05:14.202Z,102654.34
2023-01-28T14:08:20.825Z,102642.00
2023-01-28T14:11:07.864Z,102635.16
2023-01-28T14:14:12.719Z,102631.63
2023-01-28T14:16:53.778Z,102631.81
2023-01-28T14:19:29.978Z,102629.28
2023-01-28T14:21:59.398Z,102630.84
2023-01-28T14:24:29.968Z,102625.69
2023-01-28T14:27:06.067Z,102619.03
2023-01-28T14:29:45.604Z,102619.91
2023-01-28T14:32:18.006Z,102604.44
2023-01-28T14:34:48.879Z,102611.09
2023-01-28T14:37:21.512Z,102616.09
2023-01-28T14:39:57.389Z,102623.69
2023-01-28T14:42:29.443Z,102637.66
2023-01-28T14:45:10.448Z,102631.66
2023-01-28T14:47:58.453Z,102642.94
2023-01-28T14:50:45.516Z,102646.41
2023-01-28T14:53:43.902Z,102638.34
2023-01-28T14:56:28.998Z,102645.25
2023-01-28T14:59:03.910Z,102644.72
2023-01-28T15:01:33.771Z,102650.88
2023-01-28T15:04:02.814Z,102653.47
2023-01-28T15:06:36.464Z,102654.56
2023-01-28T15:09:10.602Z,102658.81
2023-01-28T15:11:44.526Z,102656.97
2023-01-28T15:14:21.004Z,102652.06
2023-01-28T15:16:51.507Z,102654.63
2023-01-28T15:19:27.653Z,102644.38
2023-01-28T15:21:58.586Z,102636.69
2023-01-28T15:24:28.088Z,102616.00
2023-01-28T15:26:59.742Z,102612.63
2023-01-28T15:29:35.282Z,102624.78
2023-01-28T15:32:05.454Z,102631.72
2023-01-28T15:34:34.518Z,102624.84
2023-01-28T15:37:03.878Z,102635.28
2023-01-28T15:39:32.968Z,102636.91
2023-01-28T15:42:08.203Z,102625.78
2023-01-28T15:44:40.345Z,102624.16
2023-01-28T15:47:18.786Z,102618.94
2023-01-28T15:49:51.353Z,102600.94
2023-01-28T15:52:22.565Z,102600.06
2023-01-28T15:54:53.837Z,102600.00
2023-01-28T15:57:31.014Z,102610.34
2023-01-28T16:00:13.595Z,102608.63
2023-01-28T16:02:47.451Z,102605.19
2023-01-28T16:05:33.540Z,102600.94
2023-01-28T16:08:09.826Z,102610.34
2023-01-28T16:10:39.458Z,102613.88
2023-01-28T16:13:20.834Z,102618.19
2023-01-28T16:15:54.660Z,102618.16
2023-01-28T16:18:31.787Z,102612.03
2023-01-28T16:21:02.087Z,102609.47
2023-01-28T16:23:32.037Z,102613.81
2023-01-28T16:26:02.473Z,102612.91
2023-01-28T16:28:33.243Z,102617.09
2023-01-28T16:31:02.415Z,102613.78
2023-01-28T16:33:31.636Z,102618.88
2023-01-28T16:36:08.930Z,102631.97
2023-01-28T16:38:38.331Z,102630.19
2023-01-28T16:41:13.390Z,102628.53
2023-01-28T16:43:44.361Z,102615.69
2023-01-28T16:46:14.984Z,102601.22
2023-01-28T16:48:44.491Z,102597.69
2023-01-28T16:51:18.588Z,102610.78
2023-01-28T16:53:50.274Z,102622.13
2023-01-28T16:56:43.955Z,102622.16
2023-01-28T16:59:13.739Z,102617.91
2023-01-28T17:01:43.866Z,102626.59
2023-01-28T17:04:13.881Z,102624.00
2023-01-28T17:06:45.545Z,102620.47
2023-01-28T17:09:16.087Z,102624.72
2023-01-28T17:11:45.639Z,102618.63
2023-01-28T17:14:16.057Z,102616.06
2023-01-28T17:16:45.263Z,102607.56
2023-01-28T17:19:14.542Z,102608.34
2023-01-28T17:21:43.979Z,102610.00
2023-01-28T17:24:13.026Z,102609.28
2023-01-28T17:26:42.154Z,102610.13
2023-01-28T17:29:11.420Z,102611.00
2023-01-28T17:31:42.464Z,102610.06
2023-01-28T17:34:12.379Z,102622.00
2023-01-28T17:36:41.485Z,102623.72
2023-01-28T17:39:10.514Z,102628.69
2023-01-28T17:41:39.805Z,102620.28
2023-01-28T17:44:12.191Z,102621.94
2023-01-28T17:46:42.844Z,102615.97
2023-01-28T17:49:12.007Z,102614.31
2023-01-28T17:51:41.387Z,102618.59
2023-01-28T17:54:11.798Z,102621.22
2023-01-28T17:56:41.399Z,102616.97
2023-01-28T17:59:11.739Z,102612.69
2023-01-28T18:01:44.509Z,102611.78
2023-01-28T18:04:16.809Z,102614.44
2023-01-28T18:06:47.249Z,102616.13
2023-01-28T18:09:16.648Z,102634.19
2023-01-28T18:11:45.770Z,102635.81
2023-01-28T18:14:15.467Z,102632.41
2023-01-28T18:16:45.921Z,102638.38
2023-01-28T18:19:15.455Z,102640.09
2023-01-28T18:21:53.012Z,102638.34
2023-01-28T18:24:24.867Z,102643.44
2023-01-28T18:26:58.055Z,102642.59
2023-01-28T18:29:27.507Z,102641.75
2023-01-28T18:31:59.661Z,102640.88
2023-01-28T18:34:31.765Z,102645.13
2023-01-28T18:37:03.432Z,102625.28
2023-01-28T18:39:33.534Z,102627.81
2023-01-28T18:42:05.748Z,102622.63
2023-01-28T18:44:34.858Z,102624.25
2023-01-28T18:47:05.374Z,102621.72
2023-01-28T18:49:35.589Z,102614.81
2023-01-28T18:52:04.831Z,102613.91
2023-01-28T18:54:34.110Z,102607.00
2023-01-28T18:57:03.517Z,102600.94
2023-01-28T18:59:32.690Z,102599.22
2023-01-28T19:02:05.443Z,102597.41
2023-01-28T19:04:36.880Z,102592.25
2023-01-28T19:07:08.132Z,102588.81
2023-01-28T19:09:37.931Z,102588.00
2023-01-28T19:12:07.462Z,102584.47
2023-01-28T19:14:36.784Z,102595.69
2023-01-28T19:17:08.303Z,102592.28
2023-01-28T19:19:37.589Z,102600.72
2023-01-28T19:22:07.177Z,102594.09
2023-01-28T19:24:36.856Z,102584.56
2023-01-28T19:27:06.235Z,102592.47
2023-01-28T19:29:35.960Z,102582.94
2023-01-28T19:32:06.761Z,102576.91
2023-01-28T19:34:36.624Z,102587.16
2023-01-28T19:37:08.454Z,102584.56
2023-01-28T19:39:37.791Z,102586.41
2023-01-28T19:42:10.375Z,102583.72
2023-01-28T19:44:42.540Z,102579.47
2023-01-28T19:47:16.764Z,102575.16
2023-01-28T19:49:46.213Z,102580.31
2023-01-28T19:52:15.358Z,102579.44
2023-01-28T19:54:49.475Z,102583.69
2023-01-28T19:57:19.284Z,102587.13
2023-01-28T19:59:51.211Z,102585.34
2023-01-28T20:02:22.119Z,102578.41
2023-01-28T20:05:00.561Z,102578.38
2023-01-28T20:07:30.344Z,102581.88
2023-01-28T20:10:00.056Z,102579.22
2023-01-28T20:12:29.863Z,102573.97
2023-01-28T20:14:59.196Z,102569.81
2023-01-28T20:17:31.694Z,102568.09
2023-01-28T20:20:01.126Z,102562.09
2023-01-28T20:22:30.324Z,102561.13
2023-01-28T20:25:05.417Z,102565.44
2023-01-28T20:27:34.738Z,102566.44
2023-01-28T20:30:07.047Z,102561.28
2023-01-28T20:32:37.649Z,102562.91
2023-01-28T20:35:10.283Z,102555.19
2023-01-28T20:37:44.627Z,102547.41
2023-01-28T20:40:18.174Z,102552.69
2023-01-28T20:42:50.797Z,102555.25
2023-01-28T20:45:20.321Z,102542.31
2023-01-28T20:47:51.330Z,102538.00
2023-01-28T20:50:20.797Z,102533.69
2023-01-28T20:52:50.482Z,102540.56
2023-01-28T20:55:19.687Z,102538.81
2023-01-28T20:57:49.173Z,102543.88
2023-01-28T21:00:21.816Z,102548.28
2023-01-28T21:02:52.595Z,102545.59
2023-01-28T21:05:22.172Z,102542.22
2023-01-28T21:07:53.333Z,102533.53
2023-01-28T21:10:22.939Z,102542.13
2023-01-28T21:12:55.320Z,102536.91
2023-01-28T21:15:24.821Z,102529.28
2023-01-28T21:17:55.584Z,102531.72
2023-01-28T21:20:25.579Z,102532.50
2023-01-28T21:22:56.943Z,102527.34
2023-01-28T21:25:26.967Z,102536.81
2023-01-28T21:27:56.071Z,102536.72
2023-01-28T21:30:28.103Z,102554.69
2023-01-28T21:32:59.983Z,102543.28
2023-01-28T21:35:32.301Z,102533.91
2023-01-28T21:38:01.889Z,102535.53
2023-01-28T21:40:34.490Z,102522.78
2023-01-28T21:43:04.727Z,102532.25
2023-01-28T21:45:34.224Z,102540.09
2023-01-28T21:48:04.932Z,102523.69
2023-01-28T21:50:57.561Z,102523.63
2023-01-28T21:53:31.965Z,102533.03
2023-01-28T21:56:01.101Z,102520.97
2023-01-28T21:58:47.944Z,102523.56
2023-01-28T22:01:17.474Z,102518.34
2023-01-28T22:03:48.256Z,102517.44
2023-01-28T22:06:17.682Z,102514.84
2023-01-28T22:08:52.328Z,102513.09
2023-01-28T22:11:24.819Z,102511.38
2023-01-28T22:13:57.618Z,102509.56
2023-01-28T22:16:27.001Z,102515.59
2023-01-28T22:18:58.580Z,102522.56
2023-01-28T22:21:27.927Z,102511.25
2023-01-28T22:23:58.538Z,102508.59
2023-01-28T22:26:28.427Z,102500.84
2023-01-28T22:29:00.138Z,102496.53
2023-01-28T22:31:29.540Z,102495.66
2023-01-28T22:34:05.516Z,102497.34
2023-01-28T22:36:35.494Z,102488.69
2023-01-28T22:39:07.360Z,102487.97
2023-01-28T22:41:39.731Z,102486.19
2023-01-28T22:44:09.613Z,102480.16
2023-01-28T22:46:39.474Z,102480.13
2023-01-28T22:49:11.378Z,102474.94
2023-01-28T22:51:40.439Z,102463.66
2023-01-28T22:54:10.357Z,102463.56
2023-01-28T22:56:40.151Z,102456.81
2023-01-28T22:59:09.178Z,102465.38
2023-01-28T23:01:38.227Z,102458.41
2023-01-28T23:04:08.740Z,102461.91
2023-01-28T23:06:38.142Z,102461.03
2023-01-28T23:09:07.292Z,102458.47
2023-01-28T23:11:36.450Z,102466.25
2023-01-28T23:14:23.683Z,102472.13
2023-01-28T23:17:10.349Z,102465.19
2023-01-28T23:19:58.085Z,102474.88
2023-01-28T23:22:50.834Z,102464.34
2023-01-28T23:25:20.636Z,102464.34
2023-01-28T23:27:49.686Z,102463.44
2023-01-28T23:30:24.893Z,102465.22
2023-01-28T23:32:57.930Z,102464.25
2023-01-28T23:35:30.828Z,102470.28
2023-01-28T23:37:59.934Z,102471.97
2023-01-28T23:40:28.981Z,102472.88
2023-01-28T23:42:58.684Z,102467.69
2023-01-28T23:45:27.773Z,102470.16
2023-01-28T23:47:56.751Z,102469.28
2023-01-28T23:50:27.084Z,102478.78
2023-01-28T23:52:56.146Z,102478.69
2023-01-28T23:55:25.148Z,102479.66
2023-01-28T23:57:54.201Z,102482.16
